EDT,Max TemperatureF,Mean TemperatureF,Min TemperatureF,Max Dew PointF,MeanDew PointF,Min DewpointF,Max Humidity, Mean Humidity, Min Humidity, Max Sea Level PressureIn, Mean Sea Level PressureIn, Min Sea Level PressureIn, Max VisibilityMiles, Mean VisibilityMiles, Min VisibilityMiles, Max Wind SpeedMPH, Mean Wind SpeedMPH, Max Gust SpeedMPH,PrecipitationIn, CloudCover, Events, WindDirDegrees
2013-5-1,75,70,64,73,68,64,100,97,73,30.05,30.00,29.97,10,9,1,12,4,,0.19,5,Rain,81
2013-5-2,73,68,62,72,67,63,100,98,88,30.00,29.92,29.85,10,9,2,10,4,,0.36,7,Rain-Thunderstorm,50
2013-5-3,82,73,64,72,67,59,100,90,45,29.86,29.80,29.75,10,9,4,14,4,22,0.07,6,Rain,11
2013-5-4,80,72,64,70,65,59,100,82,48,29.83,29.75,29.70,10,10,5,18,7,24,0.00,5,,292
2013-5-5,77,67,55,68,51,37,100,62,27,29.97,29.90,29.81,10,10,10,20,10,29,0.00,2,,298
2013-5-6,75,64,53,61,53,45,100,71,36,30.04,29.99,29.93,10,10,7,17,4,26,0.00,1,Rain,280
2013-5-7,77,62,48,59,53,48,100,72,39,30.09,30.04,30.00,10,10,10,14,4,22,0.00,2,,248
2013-5-8,80,66,51,64,55,50,100,71,36,30.17,30.11,30.06,10,9,0,15,3,18,0.00,1,Fog,273
2013-5-9,86,68,51,68,54,50,100,60,29,30.18,30.14,30.10,10,10,7,10,2,,0.00,1,,268
2013-5-10,89,73,57,73,61,54,100,70,29,30.18,30.09,30.02,10,10,4,13,3,20,0.00,1,,220
2013-5-11,87,74,60,77,67,61,100,85,45,30.09,30.05,30.01,10,8,1,21,4,36,0.58,2,Rain-Thunderstorm,228
2013-5-12,87,74,62,77,64,59,100,75,40,30.08,30.03,29.97,10,9,2,16,3,23,0.00,2,,279
2013-5-13,82,70,57,68,56,37,100,68,21,30.17,30.10,30.04,10,10,2,14,4,21,0.00,1,,331
2013-5-14,82,64,46,55,46,37,100,57,23,30.25,30.19,30.15,10,10,10,10,3,17,0.00,0,,39
2013-5-15,86,68,51,63,52,45,100,60,23,30.25,30.18,30.10,10,10,5,10,2,,0.00,0,,93
2013-5-16,86,70,55,66,56,48,100,64,27,30.16,30.10,30.03,10,10,5,8,2,,0.00,1,,118
2013-5-17,89,74,59,68,59,50,100,62,27,30.13,30.09,30.05,10,10,7,7,1,,0.00,2,,125
2013-5-18,91,76,62,75,64,54,100,70,29,30.14,30.09,30.03,10,9,3,10,2,,0.00,2,Thunderstorm,271
2013-5-19,91,78,64,73,65,54,100,73,28,30.12,30.07,30.00,10,10,5,12,3,16,0.00,2,Thunderstorm,201
2013-5-20,89,76,64,73,68,59,100,84,38,30.10,30.06,30.01,10,10,4,14,2,22,0.21,2,Rain-Thunderstorm,110
2013-5-21,84,73,62,75,66,63,100,88,48,30.06,30.02,29.97,10,8,0,14,3,29,0.06,3,Fog-Rain-Thunderstorm,88
2013-5-22,89,76,62,77,67,57,100,84,33,30.01,29.96,29.91,10,8,1,15,3,22,0.00,3,Thunderstorm,60
2013-5-23,91,76,62,77,66,61,100,77,36,30.03,29.99,29.95,10,8,0,14,2,21,0.00,3,Fog,297
2013-5-24,95,78,62,79,62,46,100,66,19,30.10,30.05,30.01,10,9,0,16,3,23,0.00,1,Fog,305
2013-5-25,89,76,62,72,59,52,100,62,27,30.22,30.15,30.10,10,10,10,14,6,20,0.00,1,,57
2013-5-26,87,70,53,64,53,43,100,61,22,30.25,30.20,30.14,10,10,7,10,4,,0.00,0,,66
2013-5-27,89,73,57,68,57,50,100,64,27,30.22,30.17,30.10,10,10,7,13,4,18,0.00,0,,88
2013-5-28,89,76,62,75,66,61,100,78,38,30.18,30.12,30.07,10,10,5,18,6,25,0.00,2,Thunderstorm,86
2013-5-29,86,77,68,77,70,64,100,87,48,30.16,30.11,30.08,10,10,2,16,6,24,0.77,2,Rain,91
2013-5-30,86,78,69,77,70,64,100,83,48,30.13,30.10,30.05,10,9,5,22,8,31,0.03,3,Rain,85
2013-5-31,89,78,66,73,67,63,100,74,43,30.13,30.08,30.03,10,10,10,22,7,26,0.00,3,Rain,90